createdAt,value
2022-10-18T00:01:53.329Z,102118.84
2022-10-18T00:04:19.857Z,102111.66
2022-10-18T00:06:46.313Z,102117.13
2022-10-18T00:09:13.122Z,102121.88
2022-10-18T00:11:39.793Z,102127.19
2022-10-18T00:14:06.358Z,102134.69
2022-10-18T00:16:34.190Z,102133.81
2022-10-18T00:19:00.801Z,102132.97
2022-10-18T00:21:27.722Z,102127.50
2022-10-18T00:23:54.475Z,102133.81
2022-10-18T00:26:22.874Z,102147.50
2022-10-18T00:28:52.039Z,102151.09
2022-10-18T00:31:21.597Z,102152.94
2022-10-18T00:33:50.985Z,102154.69
2022-10-18T00:36:17.459Z,102150.94
2022-10-18T00:38:44.408Z,102145.31
2022-10-18T00:41:14.198Z,102147.03
2022-10-18T00:43:59.261Z,102148.75
2022-10-18T00:46:27.268Z,102146.91
2022-10-18T00:48:56.430Z,102150.47
2022-10-18T00:51:25.546Z,102151.03
2022-10-18T00:53:52.222Z,102157.88
2022-10-18T00:56:19.754Z,102149.22
2022-10-18T00:58:47.686Z,102156.06
2022-10-18T01:01:14.598Z,102145.66
2022-10-18T01:03:41.233Z,102158.84
2022-10-18T01:06:09.585Z,102157.66
2022-10-18T01:08:46.963Z,102160.91
2022-10-18T01:11:28.227Z,102162.50
2022-10-18T01:14:05.812Z,102167.47
2022-10-18T01:16:38.087Z,102158.25
2022-10-18T01:19:14.729Z,102160.81
2022-10-18T01:21:50.097Z,102154.34
2022-10-18T01:24:53.103Z,102153.31
2022-10-18T01:27:38.538Z,102147.84
2022-10-18T01:30:39.370Z,102151.25
2022-10-18T01:33:14.968Z,102154.00
2022-10-18T01:35:49.229Z,102157.78
2022-10-18T01:38:18.637Z,102159.47
2022-10-18T01:40:48.260Z,102158.47
2022-10-18T01:43:17.010Z,102152.84
2022-10-18T01:45:46.427Z,102146.50
2022-10-18T01:48:13.911Z,102158.13
2022-10-18T01:50:40.698Z,102155.25
2022-10-18T01:53:21.604Z,102156.97
2022-10-18T01:55:55.367Z,102163.44
2022-10-18T01:58:27.829Z,102168.75
2022-10-18T02:01:04.179Z,102166.03
2022-10-18T02:03:30.645Z,102159.50
2022-10-18T02:06:05.670Z,102149.28
2022-10-18T02:08:38.408Z,102149.13
2022-10-18T02:11:08.538Z,102147.22
2022-10-18T02:13:38.643Z,102156.13
2022-10-18T02:16:10.399Z,102150.66
2022-10-18T02:18:40.789Z,102148.63
2022-10-18T02:21:10.653Z,102147.59
2022-10-18T02:23:38.750Z,102151.19
2022-10-18T02:26:05.932Z,102159.41
2022-10-18T02:28:32.495Z,102158.38
2022-10-18T02:31:06.595Z,102162.84
2022-10-18T02:33:43.309Z,102160.97
2022-10-18T02:36:15.294Z,102170.19
2022-10-18T02:38:45.295Z,102175.66
2022-10-18T02:41:12.127Z,102176.53
2022-10-18T02:43:38.596Z,102175.34
2022-10-18T02:46:05.765Z,102165.41
2022-10-18T02:48:33.573Z,102166.25
2022-10-18T02:50:59.990Z,102173.59
2022-10-18T02:53:26.560Z,102170.88
2022-10-18T02:55:52.955Z,102172.59
2022-10-18T02:58:19.411Z,102171.72
2022-10-18T03:00:45.859Z,102183.53
2022-10-18T03:03:12.301Z,102180.81
2022-10-18T03:05:40.060Z,102182.53
2022-10-18T03:08:06.474Z,102188.00
2022-10-18T03:10:32.907Z,102187.13
2022-10-18T03:12:59.471Z,102190.88
2022-10-18T03:15:25.914Z,102196.53
2022-10-18T03:17:52.360Z,102194.66
2022-10-18T03:20:18.803Z,102194.47
2022-10-18T03:22:46.607Z,102191.75
2022-10-18T03:25:12.997Z,102195.34
2022-10-18T03:27:39.483Z,102189.19
2022-10-18T03:30:06.882Z,102188.34
2022-10-18T03:32:33.623Z,102185.75
2022-10-18T03:35:00.248Z,102193.81
2022-10-18T03:37:26.702Z,102183.88
2022-10-18T03:39:54.452Z,102186.59
2022-10-18T03:42:20.979Z,102186.59
2022-10-18T03:44:47.420Z,102179.41
2022-10-18T03:47:13.858Z,102186.75
2022-10-18T03:49:40.318Z,102189.69
2022-10-18T03:52:06.802Z,102198.72
2022-10-18T03:54:33.210Z,102198.03
2022-10-18T03:57:01.068Z,102200.91
2022-10-18T03:59:27.674Z,102203.66
2022-10-18T04:01:54.198Z,102202.97
2022-10-18T04:04:20.796Z,102192.91
2022-10-18T04:06:47.264Z,102187.56
2022-10-18T04:09:14.188Z,102190.16
2022-10-18T04:11:40.706Z,102187.56
2022-10-18T04:14:08.613Z,102185.00
2022-10-18T04:19:06.416Z,102192.00
2022-10-18T04:21:32.848Z,102193.00
2022-10-18T04:23:59.345Z,102192.28
2022-10-18T04:26:25.827Z,102190.59
2022-10-18T04:28:52.329Z,102193.34
2022-10-18T04:31:20.122Z,102189.03
2022-10-18T04:33:46.574Z,102183.88
2022-10-18T04:36:13.033Z,102184.03
2022-10-18T04:38:39.480Z,102179.44
2022-10-18T04:44:27.753Z,102179.44
2022-10-18T04:46:55.500Z,102177.72
2022-10-18T04:49:21.918Z,102182.31
2022-10-18T04:51:48.378Z,102186.94
2022-10-18T04:54:14.881Z,102188.13
2022-10-18T04:56:41.323Z,102189.13
2022-10-18T04:59:07.762Z,102184.69
2022-10-18T05:01:34.228Z,102173.75
2022-10-18T05:04:02.055Z,102172.03
2022-10-18T05:06:28.463Z,102172.91
2022-10-18T05:08:54.974Z,102166.56
2022-10-18T05:11:21.405Z,102155.63
2022-10-18T05:13:50.114Z,102161.25
2022-10-18T05:16:17.484Z,102155.09
2022-10-18T05:18:43.952Z,102151.81
2022-10-18T05:21:11.731Z,102163.06
2022-10-18T05:23:38.401Z,102158.63
2022-10-18T05:26:06.421Z,102158.94
2022-10-18T05:28:39.189Z,102165.59
2022-10-18T05:31:06.986Z,102163.03
2022-10-18T05:33:33.715Z,102173.97
2022-10-18T05:36:00.461Z,102168.50
2022-10-18T05:38:28.331Z,102177.69
2022-10-18T05:40:54.780Z,102172.22
2022-10-18T05:43:21.187Z,102177.88
2022-10-18T05:45:48.518Z,102174.28
2022-10-18T05:48:14.945Z,102172.72
2022-10-18T05:50:41.386Z,102166.38
2022-10-18T05:53:12.507Z,102172.19
2022-10-18T05:55:52.433Z,102155.09
2022-10-18T05:58:18.845Z,102153.38
2022-10-18T06:00:45.335Z,102156.41
2022-10-18T06:03:11.767Z,102155.69
2022-10-18T06:08:08.007Z,102148.50
2022-10-18T06:10:38.785Z,102144.75
2022-10-18T06:13:06.659Z,102150.22
2022-10-18T06:15:33.094Z,102149.50
2022-10-18T06:17:59.524Z,102141.31
2022-10-18T06:20:25.964Z,102136.88
2022-10-18T06:22:52.569Z,102146.94
2022-10-18T06:25:19.029Z,102142.50
2022-10-18T06:27:45.469Z,102157.16
2022-10-18T06:30:13.480Z,102151.69
2022-10-18T06:32:39.940Z,102151.69
2022-10-18T06:35:07.265Z,102148.09
2022-10-18T06:37:34.080Z,102144.38
2022-10-18T06:40:00.939Z,102152.56
2022-10-18T06:42:27.517Z,102148.81
2022-10-18T06:44:53.982Z,102159.56
2022-10-18T06:47:21.755Z,102163.16
2022-10-18T06:49:48.222Z,102164.91
2022-10-18T06:52:17.040Z,102166.63
2022-10-18T06:54:45.450Z,102174.81
2022-10-18T06:57:12.041Z,102174.81
2022-10-18T06:59:38.471Z,102177.25
2022-10-18T07:02:05.004Z,102168.91
2022-10-18T07:04:33.123Z,102181.56
2022-10-18T07:06:59.518Z,102192.31
2022-10-18T07:09:26.034Z,102198.66
2022-10-18T07:11:52.487Z,102204.81
2022-10-18T07:14:18.910Z,102220.91
2022-10-18T07:16:45.380Z,102223.47
2022-10-18T07:19:11.857Z,102231.69
2022-10-18T07:21:39.788Z,102238.00
2022-10-18T07:24:06.558Z,102245.34
2022-10-18T07:26:35.938Z,102253.56
2022-10-18T07:29:06.601Z,102252.69
2022-10-18T07:31:33.494Z,102245.81
2022-10-18T07:33:59.997Z,102243.25
2022-10-18T07:36:26.846Z,102231.28
2022-10-18T07:38:54.630Z,102238.50
2022-10-18T07:41:21.197Z,102240.03
2022-10-18T07:43:50.096Z,102239.88
2022-10-18T07:46:17.608Z,102239.88
2022-10-18T07:48:44.177Z,102234.25
2022-10-18T07:51:10.937Z,102245.03
2022-10-18T07:53:38.254Z,102242.28
2022-10-18T07:56:09.595Z,102232.22
2022-10-18T07:58:36.232Z,102239.41
2022-10-18T08:01:03.129Z,102237.50
2022-10-18T08:03:29.661Z,102221.97
2022-10-18T08:05:56.145Z,102219.25
2022-10-18T08:08:23.524Z,102218.38
2022-10-18T08:10:50.484Z,102213.78
2022-10-18T08:13:18.724Z,102217.38
2022-10-18T08:15:45.368Z,102210.88
2022-10-18T08:18:12.502Z,102212.63
2022-10-18T08:20:42.788Z,102210.75
2022-10-18T08:23:09.397Z,102217.06
2022-10-18T08:28:02.201Z,102211.59
2022-10-18T08:30:30.094Z,102213.28
2022-10-18T08:32:56.498Z,102221.50
2022-10-18T08:35:22.912Z,102224.09
2022-10-18T08:37:49.490Z,102231.44
2022-10-18T08:40:16.381Z,102227.69
2022-10-18T08:43:00.518Z,102231.44
2022-10-18T08:45:41.975Z,102227.81
2022-10-18T08:48:17.777Z,102230.56
2022-10-18T08:50:44.624Z,102234.16
2022-10-18T08:53:17.696Z,102237.59
2022-10-18T08:55:48.760Z,102244.78
2022-10-18T08:58:18.835Z,102237.28
2022-10-18T09:00:55.635Z,102232.69
2022-10-18T09:03:38.562Z,102234.22
2022-10-18T09:06:19.835Z,102234.06
2022-10-18T09:09:11.224Z,102230.16
2022-10-18T09:11:51.420Z,102236.34
2022-10-18T09:14:53.717Z,102224.38
2022-10-18T09:17:31.315Z,102225.78
2022-10-18T09:20:14.335Z,102225.78
2022-10-18T09:22:51.745Z,102225.59
2022-10-18T09:25:20.014Z,102221.00
2022-10-18T09:27:54.770Z,102228.31
2022-10-18T09:30:39.490Z,102221.16
2022-10-18T09:33:25.923Z,102219.25
2022-10-18T09:35:57.160Z,102216.38
2022-10-18T09:38:28.581Z,102214.50
2022-10-18T09:40:58.445Z,102219.97
2022-10-18T09:43:30.427Z,102222.72
2022-10-18T09:45:57.729Z,102228.03
2022-10-18T09:48:29.207Z,102223.41
2022-10-18T09:51:01.810Z,102223.25
2022-10-18T09:53:36.258Z,102225.81
2022-10-18T09:56:06.110Z,102226.50
2022-10-18T09:58:44.076Z,102225.66
2022-10-18T10:01:12.877Z,102223.78
2022-10-18T10:03:40.093Z,102213.69
2022-10-18T10:06:24.348Z,102216.44
2022-10-18T10:08:57.637Z,102222.75
2022-10-18T10:11:29.395Z,102210.97
2022-10-18T10:13:57.544Z,102222.75
2022-10-18T10:16:25.821Z,102223.63
2022-10-18T10:18:52.992Z,102217.28
2022-10-18T10:21:21.493Z,102218.16
2022-10-18T10:23:54.481Z,102206.34
2022-10-18T10:26:23.237Z,102212.69
2022-10-18T10:28:50.213Z,102216.28
2022-10-18T10:31:19.148Z,102211.50
2022-10-18T10:33:47.093Z,102201.41
2022-10-18T10:36:17.532Z,102200.41
2022-10-18T10:38:45.392Z,102197.50
2022-10-18T10:41:20.900Z,102196.47
2022-10-18T10:43:48.932Z,102194.44
2022-10-18T10:46:17.512Z,102195.31
2022-10-18T10:48:49.648Z,102193.25
2022-10-18T10:51:28.353Z,102202.31
2022-10-18T10:54:01.203Z,102200.44
2022-10-18T10:56:29.717Z,102191.38
2022-10-18T10:59:01.500Z,102188.47
2022-10-18T11:01:30.785Z,102182.84
2022-10-18T11:03:59.779Z,102179.94
2022-10-18T11:06:35.223Z,102182.53
2022-10-18T11:09:06.165Z,102184.06
2022-10-18T11:11:39.464Z,102186.66
2022-10-18T11:14:25.877Z,102200.19
2022-10-18T11:17:04.208Z,102199.13
2022-10-18T11:19:39.682Z,102196.59
2022-10-18T11:22:11.906Z,102191.41
2022-10-18T11:24:39.672Z,102188.00
2022-10-18T11:27:14.484Z,102190.88
2022-10-18T11:29:54.364Z,102182.53
2022-10-18T11:32:31.185Z,102178.44
2022-10-18T11:35:15.714Z,102169.75
2022-10-18T11:37:58.229Z,102163.78
2022-10-18T11:40:53.899Z,102166.53
2022-10-18T11:43:30.108Z,102159.41
2022-10-18T11:46:11.027Z,102160.63
2022-10-18T11:48:52.018Z,102163.72
2022-10-18T11:51:38.670Z,102167.00
2022-10-18T11:54:28.894Z,102162.38
2022-10-18T11:57:04.961Z,102162.38
2022-10-18T11:59:38.162Z,102166.84
2022-10-18T12:02:40.874Z,102166.84
2022-10-18T12:05:23.134Z,102163.59
2022-10-18T12:07:55.353Z,102164.44
2022-10-18T12:10:31.730Z,102159.78
2022-10-18T12:13:16.322Z,102172.47
2022-10-18T12:15:43.984Z,102167.84
2022-10-18T12:25:12.511Z,102146.84
2022-10-18T12:27:44.046Z,102146.19
2022-10-18T12:30:20.534Z,102148.56
2022-10-18T12:33:03.386Z,102149.59
2022-10-18T12:35:49.931Z,102150.28
2022-10-18T12:38:21.404Z,102152.19
2022-10-18T12:40:50.907Z,102142.09
2022-10-18T12:43:21.045Z,102142.94
2022-10-18T12:45:52.852Z,102134.53
2022-10-18T12:48:30.278Z,102145.84
2022-10-18T12:50:59.687Z,102139.34
2022-10-18T12:53:28.023Z,102137.13
2022-10-18T12:55:55.396Z,102140.56
2022-10-18T12:58:25.472Z,102129.41
2022-10-18T13:01:04.465Z,102135.44
2022-10-18T13:03:59.460Z,102120.53
2022-10-18T13:07:11.968Z,102131.84
2022-10-18T13:09:39.910Z,102131.69
2022-10-18T13:12:48.129Z,102126.72
2022-10-18T13:15:37.400Z,102132.00
2022-10-18T13:18:17.512Z,102127.38
2022-10-18T13:20:54.538Z,102131.31
2022-10-18T13:23:38.158Z,102129.44
2022-10-18T13:26:17.469Z,102132.69
2022-10-18T13:28:51.588Z,102136.66
2022-10-18T13:31:22.580Z,102131.16
2022-10-18T13:33:50.839Z,102125.53
2022-10-18T13:36:23.663Z,102126.88
2022-10-18T13:39:01.248Z,102134.22
2022-10-18T13:41:32.721Z,102124.78
2022-10-18T13:44:23.857Z,102134.16
2022-10-18T13:47:32.489Z,102131.41
2022-10-18T13:50:22.130Z,102128.88
2022-10-18T13:53:36.966Z,102141.22
2022-10-18T13:56:24.622Z,102138.81
2022-10-18T13:59:14.338Z,102143.78
2022-10-18T14:01:54.794Z,102138.47
2022-10-18T14:04:45.202Z,102145.69
2022-10-18T14:07:18.073Z,102152.72
2022-10-18T14:09:49.998Z,102150.50
2022-10-18T14:12:28.375Z,102156.34
2022-10-18T14:15:02.333Z,102155.28
2022-10-18T14:17:36.059Z,102156.88
2022-10-18T14:20:13.413Z,102160.28
2022-10-18T14:22:47.716Z,102164.78
2022-10-18T14:25:21.881Z,102170.56
2022-10-18T14:27:50.944Z,102170.44
2022-10-18T14:30:20.904Z,102169.19
2022-10-18T14:32:49.383Z,102175.69
2022-10-18T14:35:31.981Z,102171.91
2022-10-18T14:38:01.347Z,102170.91
2022-10-18T14:40:31.558Z,102161.69
2022-10-18T14:43:02.516Z,102167.19
2022-10-18T14:45:29.032Z,102167.47
2022-10-18T14:47:55.478Z,102182.22
2022-10-18T14:50:30.266Z,102169.53
2022-10-18T14:52:57.260Z,102177.25
2022-10-18T14:55:26.988Z,102181.53
2022-10-18T14:57:53.561Z,102175.53
2022-10-18T15:02:54.473Z,102174.31
2022-10-18T15:05:23.577Z,102174.13
2022-10-18T15:07:51.935Z,102176.69
2022-10-18T15:10:21.951Z,102178.38
2022-10-18T15:13:08.765Z,102182.13
2022-10-18T15:15:36.474Z,102178.00
2022-10-18T15:18:03.641Z,102177.81
2022-10-18T15:20:31.666Z,102172.69
2022-10-18T15:23:21.331Z,102178.66
2022-10-18T15:25:48.261Z,102184.63
2022-10-18T15:28:27.362Z,102182.38
2022-10-18T15:30:54.029Z,102186.78
2022-10-18T15:33:23.930Z,102176.28
2022-10-18T15:35:52.036Z,102174.38
2022-10-18T15:38:25.895Z,102176.06
2022-10-18T15:40:53.214Z,102181.19
2022-10-18T15:43:43.634Z,102181.81
2022-10-18T15:46:30.306Z,102177.00
2022-10-18T15:49:18.682Z,102171.16
2022-10-18T15:51:48.713Z,102170.13
2022-10-18T15:54:18.316Z,102175.34
2022-10-18T15:56:45.747Z,102167.97
2022-10-18T15:59:23.912Z,102168.94
2022-10-18T16:01:50.604Z,102170.75
2022-10-18T16:04:20.565Z,102174.44
2022-10-18T16:06:47.032Z,102171.78
2022-10-18T16:09:17.163Z,102172.69
2022-10-18T16:11:44.162Z,102171.78
2022-10-18T16:14:10.590Z,102180.91
2022-10-18T16:16:40.105Z,102173.50
2022-10-18T16:19:06.933Z,102173.56
2022-10-18T16:21:35.523Z,102177.09
2022-10-18T16:24:02.290Z,102187.22
2022-10-18T16:26:29.321Z,102191.59
2022-10-18T16:28:56.562Z,102193.38
2022-10-18T16:31:25.510Z,102196.88
2022-10-18T16:33:54.381Z,102191.31
2022-10-18T16:36:22.680Z,102189.50
2022-10-18T16:38:50.050Z,102196.50
2022-10-18T16:41:17.165Z,102202.72
2022-10-18T16:43:44.701Z,102210.81
2022-10-18T16:46:16.302Z,102207.09
2022-10-18T16:48:43.504Z,102210.41
2022-10-18T16:51:11.827Z,102212.03
2022-10-18T16:53:38.466Z,102209.19
2022-10-18T16:56:11.412Z,102212.66
2022-10-18T16:58:37.901Z,102211.50
2022-10-18T17:01:06.799Z,102216.69
2022-10-18T17:03:36.158Z,102216.41
2022-10-18T17:06:02.638Z,102222.56
2022-10-18T17:08:30.330Z,102224.00
2022-10-18T17:10:58.488Z,102223.56
2022-10-18T17:13:26.240Z,102214.13
2022-10-18T17:15:53.286Z,102219.16
2022-10-18T17:18:21.745Z,102210.53
2022-10-18T17:20:49.570Z,102220.13
2022-10-18T17:23:16.443Z,102216.94
2022-10-18T17:25:57.534Z,102224.72
2022-10-18T17:28:31.628Z,102221.69
2022-10-18T17:30:58.216Z,102230.41
2022-10-18T17:33:24.707Z,102225.53
2022-10-18T17:35:51.184Z,102234.97
2022-10-18T17:38:17.691Z,102231.94
2022-10-18T17:40:45.679Z,102238.84
2022-10-18T17:43:12.177Z,102233.81
2022-10-18T17:45:46.269Z,102239.66
2022-10-18T17:48:12.681Z,102242.94
2022-10-18T17:50:39.938Z,102246.19
2022-10-18T17:53:06.494Z,102245.75
2022-10-18T17:55:33.964Z,102237.16
2022-10-18T17:58:01.920Z,102244.72
2022-10-18T18:00:28.420Z,102247.97
2022-10-18T18:02:56.683Z,102251.97
2022-10-18T18:05:23.318Z,102253.38
2022-10-18T18:07:49.873Z,102257.34
2022-10-18T18:10:16.362Z,102263.94
2022-10-18T18:12:42.952Z,102268.78
2022-10-18T18:15:11.094Z,102264.47
2022-10-18T18:17:55.974Z,102263.88
2022-10-18T18:20:23.042Z,102272.31
2022-10-18T18:22:50.754Z,102274.41
2022-10-18T18:25:17.394Z,102272.09
2022-10-18T18:27:43.868Z,102278.66
2022-10-18T18:30:11.898Z,102276.19
2022-10-18T18:32:38.367Z,102274.75
2022-10-18T18:35:05.676Z,102279.44
2022-10-18T18:37:32.265Z,102278.56
2022-10-18T18:39:58.697Z,102279.72
2022-10-18T18:42:25.215Z,102270.81
2022-10-18T18:44:51.676Z,102272.81
2022-10-18T18:47:19.583Z,102275.66
2022-10-18T18:49:46.023Z,102271.22
2022-10-18T18:52:12.477Z,102276.78
2022-10-18T18:54:38.928Z,102266.03
2022-10-18T18:57:05.392Z,102270.75
2022-10-18T18:59:31.840Z,102270.88
2022-10-18T19:01:58.302Z,102273.72
2022-10-18T19:04:26.096Z,102265.84
2022-10-18T19:06:52.523Z,102272.38
2022-10-18T19:09:21.737Z,102278.97
2022-10-18T19:11:49.529Z,102276.34
2022-10-18T19:14:16.291Z,102274.78
2022-10-18T19:16:46.592Z,102274.03
2022-10-18T19:19:15.192Z,102279.75
2022-10-18T19:21:44.645Z,102275.44
2022-10-18T19:24:11.661Z,102277.41
2022-10-18T19:26:40.768Z,102275.94
2022-10-18T19:29:09.597Z,102278.94
2022-10-18T19:31:36.878Z,102274.75
2022-10-18T19:34:04.559Z,102269.56
2022-10-18T19:36:31.732Z,102278.13
2022-10-18T19:38:59.834Z,102275.66
2022-10-18T19:41:26.797Z,102283.19
2022-10-18T19:43:53.333Z,102284.44
2022-10-18T19:46:19.838Z,102289.13
2022-10-18T19:48:46.322Z,102296.53
2022-10-18T19:51:17.366Z,102295.94
2022-10-18T19:53:47.720Z,102299.75
2022-10-18T19:56:18.296Z,102303.59
2022-10-18T19:58:45.287Z,102314.56
2022-10-18T20:01:11.873Z,102311.13
2022-10-18T20:03:38.335Z,102306.69
2022-10-18T20:06:04.971Z,102304.94
2022-10-18T20:08:33.414Z,102306.06
2022-10-18T20:11:00.844Z,102309.78
2022-10-18T20:13:28.916Z,102318.91
2022-10-18T20:15:55.399Z,102319.88
2022-10-18T20:18:21.905Z,102330.88
2022-10-18T20:20:49.500Z,102322.84
2022-10-18T20:23:16.277Z,102327.56
2022-10-18T20:25:43.262Z,102322.25
2022-10-18T20:28:12.858Z,102323.22
2022-10-18T20:30:40.623Z,102328.75
2022-10-18T20:33:07.028Z,102333.34
2022-10-18T20:35:33.500Z,102337.91
2022-10-18T20:37:59.933Z,102338.88
2022-10-18T20:40:26.395Z,102336.19
2022-10-18T20:42:54.381Z,102331.72
2022-10-18T20:45:20.834Z,102327.28
2022-10-18T20:47:48.701Z,102336.44
2022-10-18T20:50:17.474Z,102347.28
2022-10-18T20:52:43.907Z,102334.59
2022-10-18T20:55:10.357Z,102337.41
2022-10-18T20:57:36.829Z,102337.41
2022-10-18T21:00:04.545Z,102335.44
2022-10-18T21:02:30.959Z,102324.56
2022-10-18T21:04:58.706Z,102327.28
2022-10-18T21:07:25.164Z,102325.59
2022-10-18T21:09:51.638Z,102323.84
2022-10-18T21:12:18.147Z,102324.72
2022-10-18T21:14:44.545Z,102335.44
2022-10-18T21:17:11.042Z,102331.72
2022-10-18T21:19:37.508Z,102330.75
2022-10-18T21:22:05.493Z,102339.63
2022-10-18T21:24:32.041Z,102338.63
2022-10-18T21:26:58.522Z,102321.38
2022-10-18T21:29:25.006Z,102329.41
2022-10-18T21:31:53.928Z,102324.09
2022-10-18T21:34:20.457Z,102321.38
2022-10-18T21:36:51.761Z,102321.25
2022-10-18T21:39:22.011Z,102323.97
2022-10-18T21:41:49.291Z,102321.25
2022-10-18T21:44:17.015Z,102325.69
2022-10-18T21:46:43.728Z,102323.81
2022-10-18T21:49:11.240Z,102324.56
2022-10-18T21:51:38.235Z,102322.59
2022-10-18T21:54:06.528Z,102322.34
2022-10-18T21:56:35.274Z,102320.38
2022-10-18T21:59:02.046Z,102321.13
2022-10-18T22:01:30.717Z,102322.84
2022-10-18T22:03:57.328Z,102326.28
2022-10-18T22:06:24.974Z,102329.75
2022-10-18T22:08:53.842Z,102325.91
2022-10-18T22:11:23.701Z,102327.63
2022-10-18T22:13:51.821Z,102323.78
2022-10-18T22:16:18.815Z,102307.41
2022-10-18T22:18:46.610Z,102304.56
2022-10-18T22:21:14.862Z,102305.28
2022-10-18T22:23:43.597Z,102300.59
2022-10-18T22:26:12.265Z,102300.59
2022-10-18T22:28:39.396Z,102298.59
2022-10-18T22:31:14.202Z,102306.63
2022-10-18T22:33:40.654Z,102302.94
2022-10-18T22:36:07.344Z,102302.66
2022-10-18T22:38:33.848Z,102299.84
2022-10-18T22:41:03.941Z,102301.41
2022-10-18T22:43:32.127Z,102298.59
2022-10-18T22:46:00.225Z,102287.84
2022-10-18T22:48:28.162Z,102284.28
2022-10-18T22:50:54.723Z,102283.28
2022-10-18T22:53:21.454Z,102280.56
2022-10-18T22:55:48.061Z,102283.28
2022-10-18T22:58:14.530Z,102274.16
2022-10-18T23:00:41.292Z,102270.44
2022-10-18T23:03:08.139Z,102278.56
2022-10-18T23:05:38.134Z,102271.28
2022-10-18T23:08:04.994Z,102278.56
2022-10-18T23:10:31.435Z,102273.13
2022-10-18T23:12:57.901Z,102286.72
2022-10-18T23:15:24.429Z,102286.59
2022-10-18T23:17:50.892Z,102273.03
2022-10-18T23:20:17.512Z,102269.31
2022-10-18T23:22:45.349Z,102267.47
2022-10-18T23:25:11.807Z,102280.03
2022-10-18T23:27:38.292Z,102271.88
2022-10-18T23:30:05.775Z,102277.31
2022-10-18T23:32:32.579Z,102286.22
2022-10-18T23:34:59.310Z,102280.66
2022-10-18T23:37:25.753Z,102285.06
2022-10-18T23:39:53.541Z,102282.25
2022-10-18T23:42:19.989Z,102286.69
2022-10-18T23:44:46.563Z,102278.66
2022-10-18T23:47:13.026Z,102281.38
2022-10-18T23:49:39.453Z,102274.22
2022-10-18T23:52:05.933Z,102271.50
2022-10-18T23:54:32.404Z,102278.78
2022-10-18T23:57:00.235Z,102278.78
2022-10-18T23:59:26.842Z,102284.22
